sensor_id;sensor_type;location;lat;lon;timestamp;temperature;humidity
51908;DHT22;39320;53.214;6.556;2023-07-31T00:02:20;17.60;99.90
51908;DHT22;39320;53.214;6.556;2023-07-31T00:04:46;17.50;99.90
51908;DHT22;39320;53.214;6.556;2023-07-31T00:07:12;17.50;99.90
51908;DHT22;39320;53.214;6.556;2023-07-31T00:09:38;17.50;99.90
51908;DHT22;39320;53.214;6.556;2023-07-31T00:12:04;17.40;99.90
51908;DHT22;39320;53.214;6.556;2023-07-31T00:14:29;17.40;99.90
51908;DHT22;39320;53.214;6.556;2023-07-31T00:16:55;17.40;99.90
51908;DHT22;39320;53.214;6.556;2023-07-31T00:19:21;17.40;99.90
51908;DHT22;39320;53.214;6.556;2023-07-31T00:21:46;17.40;99.90
51908;DHT22;39320;53.214;6.556;2023-07-31T00:24:12;17.40;99.90
51908;DHT22;39320;53.214;6.556;2023-07-31T00:26:38;17.40;99.90
51908;DHT22;39320;53.214;6.556;2023-07-31T00:29:04;17.30;99.90
51908;DHT22;39320;53.214;6.556;2023-07-31T00:31:29;17.30;99.90
51908;DHT22;39320;53.214;6.556;2023-07-31T00:33:55;17.30;99.90
51908;DHT22;39320;53.214;6.556;2023-07-31T00:36:21;17.30;99.90
51908;DHT22;39320;53.214;6.556;2023-07-31T00:38:47;17.20;99.90
51908;DHT22;39320;53.214;6.556;2023-07-31T00:41:12;17.20;99.90
51908;DHT22;39320;53.214;6.556;2023-07-31T00:43:38;17.20;99.90
51908;DHT22;39320;53.214;6.556;2023-07-31T00:46:04;17.20;99.90
51908;DHT22;39320;53.214;6.556;2023-07-31T00:48:30;17.10;99.90
51908;DHT22;39320;53.214;6.556;2023-07-31T00:50:57;17.00;99.90
51908;DHT22;39320;53.214;6.556;2023-07-31T00:53:24;17.00;99.90
51908;DHT22;39320;53.214;6.556;2023-07-31T00:55:52;17.00;99.90
51908;DHT22;39320;53.214;6.556;2023-07-31T00:58:18;17.00;99.90
51908;DHT22;39320;53.214;6.556;2023-07-31T01:00:43;17.00;99.90
51908;DHT22;39320;53.214;6.556;2023-07-31T01:03:09;16.90;99.90
51908;DHT22;39320;53.214;6.556;2023-07-31T01:08:40;16.90;99.90
51908;DHT22;39320;53.214;6.556;2023-07-31T01:11:15;16.90;99.90
51908;DHT22;39320;53.214;6.556;2023-07-31T01:13:44;16.90;99.90
51908;DHT22;39320;53.214;6.556;2023-07-31T01:16:11;16.90;99.90
51908;DHT22;39320;53.214;6.556;2023-07-31T01:18:36;16.90;99.90
51908;DHT22;39320;53.214;6.556;2023-07-31T01:24:28;16.90;99.90
51908;DHT22;39320;53.214;6.556;2023-07-31T01:27:08;16.90;99.90
51908;DHT22;39320;53.214;6.556;2023-07-31T01:29:42;16.90;99.90
51908;DHT22;39320;53.214;6.556;2023-07-31T01:32:09;16.90;99.90
51908;DHT22;39320;53.214;6.556;2023-07-31T01:34:36;16.90;99.90
51908;DHT22;39320;53.214;6.556;2023-07-31T01:37:03;16.90;99.90
51908;DHT22;39320;53.214;6.556;2023-07-31T01:39:29;16.90;99.90
51908;DHT22;39320;53.214;6.556;2023-07-31T01:41:54;16.90;99.90
51908;DHT22;39320;53.214;6.556;2023-07-31T01:44:20;16.90;99.90
51908;DHT22;39320;53.214;6.556;2023-07-31T01:46:46;16.90;99.90
51908;DHT22;39320;53.214;6.556;2023-07-31T01:49:11;16.90;99.90
51908;DHT22;39320;53.214;6.556;2023-07-31T01:51:37;16.90;99.90
51908;DHT22;39320;53.214;6.556;2023-07-31T01:54:03;16.90;99.90
51908;DHT22;39320;53.214;6.556;2023-07-31T01:56:29;16.90;99.90
51908;DHT22;39320;53.214;6.556;2023-07-31T01:58:54;16.90;99.90
51908;DHT22;39320;53.214;6.556;2023-07-31T02:01:20;16.90;99.90
51908;DHT22;39320;53.214;6.556;2023-07-31T02:03:46;16.90;99.90
51908;DHT22;39320;53.214;6.556;2023-07-31T02:06:11;16.90;99.90
51908;DHT22;39320;53.214;6.556;2023-07-31T02:08:37;16.90;99.90
51908;DHT22;39320;53.214;6.556;2023-07-31T02:11:03;16.90;99.90
51908;DHT22;39320;53.214;6.556;2023-07-31T02:13:29;16.90;99.90
51908;DHT22;39320;53.214;6.556;2023-07-31T02:15:54;16.90;99.90
51908;DHT22;39320;53.214;6.556;2023-07-31T02:18:22;16.90;99.90
51908;DHT22;39320;53.214;6.556;2023-07-31T02:20:51;16.90;99.90
51908;DHT22;39320;53.214;6.556;2023-07-31T02:23:18;16.90;99.90
51908;DHT22;39320;53.214;6.556;2023-07-31T02:25:44;16.90;99.90
51908;DHT22;39320;53.214;6.556;2023-07-31T02:28:10;16.90;99.90
51908;DHT22;39320;53.214;6.556;2023-07-31T02:30:36;16.90;99.90
51908;DHT22;39320;53.214;6.556;2023-07-31T02:33:02;16.80;99.90
51908;DHT22;39320;53.214;6.556;2023-07-31T02:35:27;16.80;99.90
51908;DHT22;39320;53.214;6.556;2023-07-31T02:37:53;16.80;99.90
51908;DHT22;39320;53.214;6.556;2023-07-31T02:40:19;16.90;99.90
51908;DHT22;39320;53.214;6.556;2023-07-31T02:42:45;16.90;99.90
51908;DHT22;39320;53.214;6.556;2023-07-31T02:45:10;16.90;99.90
51908;DHT22;39320;53.214;6.556;2023-07-31T02:47:36;16.90;99.90
51908;DHT22;39320;53.214;6.556;2023-07-31T02:50:03;16.90;99.90
51908;DHT22;39320;53.214;6.556;2023-07-31T02:52:29;16.90;99.90
51908;DHT22;39320;53.214;6.556;2023-07-31T02:54:55;16.90;99.90
51908;DHT22;39320;53.214;6.556;2023-07-31T02:57:21;16.90;99.90
51908;DHT22;39320;53.214;6.556;2023-07-31T02:59:46;16.90;99.90
51908;DHT22;39320;53.214;6.556;2023-07-31T03:02:12;16.90;99.90
51908;DHT22;39320;53.214;6.556;2023-07-31T03:04:38;16.90;99.90
51908;DHT22;39320;53.214;6.556;2023-07-31T03:07:04;17.00;99.90
51908;DHT22;39320;53.214;6.556;2023-07-31T03:09:30;17.00;99.90
51908;DHT22;39320;53.214;6.556;2023-07-31T03:11:56;17.00;99.90
51908;DHT22;39320;53.214;6.556;2023-07-31T03:14:22;17.00;99.90
51908;DHT22;39320;53.214;6.556;2023-07-31T03:16:48;17.10;99.90
51908;DHT22;39320;53.214;6.556;2023-07-31T03:19:14;17.10;99.90
51908;DHT22;39320;53.214;6.556;2023-07-31T03:21:40;17.00;99.90
51908;DHT22;39320;53.214;6.556;2023-07-31T03:24:06;17.10;99.90
51908;DHT22;39320;53.214;6.556;2023-07-31T03:26:32;17.10;99.90
51908;DHT22;39320;53.214;6.556;2023-07-31T03:28:57;17.00;99.90
51908;DHT22;39320;53.214;6.556;2023-07-31T03:31:23;17.00;99.90
51908;DHT22;39320;53.214;6.556;2023-07-31T03:33:49;17.00;99.90
51908;DHT22;39320;53.214;6.556;2023-07-31T03:36:14;16.90;99.90
51908;DHT22;39320;53.214;6.556;2023-07-31T03:38:40;16.90;99.90
51908;DHT22;39320;53.214;6.556;2023-07-31T03:41:06;17.00;99.90
51908;DHT22;39320;53.214;6.556;2023-07-31T03:43:32;17.00;99.90
51908;DHT22;39320;53.214;6.556;2023-07-31T03:46:01;17.00;99.90
51908;DHT22;39320;53.214;6.556;2023-07-31T03:48:28;17.00;99.90
51908;DHT22;39320;53.214;6.556;2023-07-31T03:50:54;17.00;99.90
51908;DHT22;39320;53.214;6.556;2023-07-31T03:53:20;17.00;99.90
51908;DHT22;39320;53.214;6.556;2023-07-31T03:55:46;16.90;99.90
51908;DHT22;39320;53.214;6.556;2023-07-31T03:58:12;16.90;99.90
51908;DHT22;39320;53.214;6.556;2023-07-31T04:00:37;16.90;99.90
51908;DHT22;39320;53.214;6.556;2023-07-31T04:03:03;16.90;99.90
51908;DHT22;39320;53.214;6.556;2023-07-31T04:05:31;16.90;99.90
51908;DHT22;39320;53.214;6.556;2023-07-31T04:07:57;16.90;99.90
51908;DHT22;39320;53.214;6.556;2023-07-31T04:10:23;16.80;99.90
51908;DHT22;39320;53.214;6.556;2023-07-31T04:12:49;16.80;99.90
51908;DHT22;39320;53.214;6.556;2023-07-31T04:15:15;16.90;99.90
51908;DHT22;39320;53.214;6.556;2023-07-31T04:17:42;16.80;99.90
51908;DHT22;39320;53.214;6.556;2023-07-31T04:20:08;16.80;99.90
51908;DHT22;39320;53.214;6.556;2023-07-31T04:22:34;16.90;99.90
51908;DHT22;39320;53.214;6.556;2023-07-31T04:24:59;16.90;99.90
51908;DHT22;39320;53.214;6.556;2023-07-31T04:27:25;16.90;99.90
51908;DHT22;39320;53.214;6.556;2023-07-31T04:29:51;16.90;99.90
51908;DHT22;39320;53.214;6.556;2023-07-31T04:32:17;16.90;99.90
51908;DHT22;39320;53.214;6.556;2023-07-31T04:34:43;16.90;99.90
51908;DHT22;39320;53.214;6.556;2023-07-31T04:37:09;16.90;99.90
51908;DHT22;39320;53.214;6.556;2023-07-31T04:39:34;16.90;99.90
51908;DHT22;39320;53.214;6.556;2023-07-31T04:42:00;16.90;99.90
51908;DHT22;39320;53.214;6.556;2023-07-31T04:44:26;16.90;99.90
51908;DHT22;39320;53.214;6.556;2023-07-31T04:46:51;16.90;99.90
51908;DHT22;39320;53.214;6.556;2023-07-31T04:49:17;16.90;99.90
51908;DHT22;39320;53.214;6.556;2023-07-31T04:51:44;16.90;99.90
51908;DHT22;39320;53.214;6.556;2023-07-31T04:54:10;16.90;99.90
51908;DHT22;39320;53.214;6.556;2023-07-31T04:56:38;16.90;99.90
51908;DHT22;39320;53.214;6.556;2023-07-31T04:59:03;17.00;99.90
51908;DHT22;39320;53.214;6.556;2023-07-31T05:01:29;17.00;99.90
51908;DHT22;39320;53.214;6.556;2023-07-31T05:03:55;17.00;99.90
51908;DHT22;39320;53.214;6.556;2023-07-31T05:06:21;17.10;99.90
51908;DHT22;39320;53.214;6.556;2023-07-31T05:08:46;17.00;99.90
51908;DHT22;39320;53.214;6.556;2023-07-31T05:11:12;17.00;99.90
51908;DHT22;39320;53.214;6.556;2023-07-31T05:13:38;17.00;99.90
51908;DHT22;39320;53.214;6.556;2023-07-31T05:16:03;17.00;99.90
51908;DHT22;39320;53.214;6.556;2023-07-31T05:18:29;17.00;99.90
51908;DHT22;39320;53.214;6.556;2023-07-31T05:20:55;17.00;99.90
51908;DHT22;39320;53.214;6.556;2023-07-31T05:23:21;16.90;99.90
51908;DHT22;39320;53.214;6.556;2023-07-31T05:25:47;17.00;99.90
51908;DHT22;39320;53.214;6.556;2023-07-31T05:28:13;16.90;99.90
51908;DHT22;39320;53.214;6.556;2023-07-31T05:30:38;17.00;99.90
51908;DHT22;39320;53.214;6.556;2023-07-31T05:33:04;17.00;99.90
51908;DHT22;39320;53.214;6.556;2023-07-31T05:35:30;17.00;99.90
51908;DHT22;39320;53.214;6.556;2023-07-31T05:37:56;17.00;99.90
51908;DHT22;39320;53.214;6.556;2023-07-31T05:40:21;16.90;99.90
51908;DHT22;39320;53.214;6.556;2023-07-31T05:42:48;17.00;99.90
51908;DHT22;39320;53.214;6.556;2023-07-31T05:45:14;16.90;99.90
51908;DHT22;39320;53.214;6.556;2023-07-31T05:47:40;16.90;99.90
51908;DHT22;39320;53.214;6.556;2023-07-31T05:50:05;16.90;99.90
51908;DHT22;39320;53.214;6.556;2023-07-31T05:52:31;16.90;99.90
51908;DHT22;39320;53.214;6.556;2023-07-31T05:54:57;16.90;99.90
51908;DHT22;39320;53.214;6.556;2023-07-31T05:57:23;16.90;99.90
51908;DHT22;39320;53.214;6.556;2023-07-31T05:59:49;16.90;99.90
51908;DHT22;39320;53.214;6.556;2023-07-31T06:02:14;17.00;99.90
51908;DHT22;39320;53.214;6.556;2023-07-31T06:04:40;17.00;99.90
51908;DHT22;39320;53.214;6.556;2023-07-31T06:07:06;17.00;99.90
51908;DHT22;39320;53.214;6.556;2023-07-31T06:09:32;17.00;99.90
51908;DHT22;39320;53.214;6.556;2023-07-31T06:11:57;17.00;99.90
51908;DHT22;39320;53.214;6.556;2023-07-31T06:14:24;17.10;99.90
51908;DHT22;39320;53.214;6.556;2023-07-31T06:16:49;17.00;99.90
51908;DHT22;39320;53.214;6.556;2023-07-31T06:19:15;17.00;99.90
51908;DHT22;39320;53.214;6.556;2023-07-31T06:21:41;17.00;99.90
51908;DHT22;39320;53.214;6.556;2023-07-31T06:24:08;17.00;99.90
51908;DHT22;39320;53.214;6.556;2023-07-31T06:26:34;17.00;99.90
51908;DHT22;39320;53.214;6.556;2023-07-31T06:29:00;17.00;99.90
51908;DHT22;39320;53.214;6.556;2023-07-31T06:31:26;17.00;99.90
51908;DHT22;39320;53.214;6.556;2023-07-31T06:33:52;17.00;99.90
51908;DHT22;39320;53.214;6.556;2023-07-31T06:36:18;17.00;99.90
51908;DHT22;39320;53.214;6.556;2023-07-31T06:38:44;17.00;99.90
51908;DHT22;39320;53.214;6.556;2023-07-31T06:41:10;17.10;99.90
51908;DHT22;39320;53.214;6.556;2023-07-31T06:43:36;17.10;99.90
51908;DHT22;39320;53.214;6.556;2023-07-31T06:46:06;17.10;99.90
51908;DHT22;39320;53.214;6.556;2023-07-31T06:48:35;17.20;99.90
51908;DHT22;39320;53.214;6.556;2023-07-31T06:51:03;17.20;99.90
51908;DHT22;39320;53.214;6.556;2023-07-31T06:53:29;17.20;99.90
51908;DHT22;39320;53.214;6.556;2023-07-31T06:55:55;17.30;99.90
51908;DHT22;39320;53.214;6.556;2023-07-31T06:58:21;17.30;99.90
51908;DHT22;39320;53.214;6.556;2023-07-31T07:00:46;17.40;99.90
51908;DHT22;39320;53.214;6.556;2023-07-31T07:03:14;17.40;99.90
51908;DHT22;39320;53.214;6.556;2023-07-31T07:05:40;17.40;99.90
51908;DHT22;39320;53.214;6.556;2023-07-31T07:08:06;17.50;99.90
51908;DHT22;39320;53.214;6.556;2023-07-31T07:10:32;17.50;99.90
51908;DHT22;39320;53.214;6.556;2023-07-31T07:12:57;17.50;99.90
51908;DHT22;39320;53.214;6.556;2023-07-31T07:15:23;17.50;99.90
51908;DHT22;39320;53.214;6.556;2023-07-31T07:17:49;17.50;99.90
51908;DHT22;39320;53.214;6.556;2023-07-31T07:20:15;17.50;99.90
51908;DHT22;39320;53.214;6.556;2023-07-31T07:22:40;17.60;99.90
51908;DHT22;39320;53.214;6.556;2023-07-31T07:25:08;17.60;99.90
51908;DHT22;39320;53.214;6.556;2023-07-31T07:27:35;17.60;99.90
51908;DHT22;39320;53.214;6.556;2023-07-31T07:30:01;17.60;99.90
51908;DHT22;39320;53.214;6.556;2023-07-31T07:32:26;17.50;99.90
51908;DHT22;39320;53.214;6.556;2023-07-31T07:34:52;17.60;99.90
51908;DHT22;39320;53.214;6.556;2023-07-31T07:37:18;17.50;99.90
51908;DHT22;39320;53.214;6.556;2023-07-31T07:39:44;17.50;99.90
51908;DHT22;39320;53.214;6.556;2023-07-31T07:42:10;17.60;99.90
51908;DHT22;39320;53.214;6.556;2023-07-31T07:44:35;17.50;99.90
51908;DHT22;39320;53.214;6.556;2023-07-31T07:47:01;17.50;99.90
51908;DHT22;39320;53.214;6.556;2023-07-31T07:49:27;17.50;99.90
51908;DHT22;39320;53.214;6.556;2023-07-31T07:51:52;17.50;99.90
51908;DHT22;39320;53.214;6.556;2023-07-31T07:54:18;17.50;99.90
51908;DHT22;39320;53.214;6.556;2023-07-31T07:56:45;17.50;99.90
51908;DHT22;39320;53.214;6.556;2023-07-31T07:59:11;17.50;99.90
51908;DHT22;39320;53.214;6.556;2023-07-31T08:01:37;17.50;99.90
51908;DHT22;39320;53.214;6.556;2023-07-31T08:04:03;17.40;99.90
51908;DHT22;39320;53.214;6.556;2023-07-31T08:06:29;17.40;99.90
51908;DHT22;39320;53.214;6.556;2023-07-31T08:08:55;17.30;99.90
51908;DHT22;39320;53.214;6.556;2023-07-31T08:11:21;17.30;99.90
51908;DHT22;39320;53.214;6.556;2023-07-31T08:13:49;17.30;99.90
51908;DHT22;39320;53.214;6.556;2023-07-31T08:16:15;17.30;99.90
51908;DHT22;39320;53.214;6.556;2023-07-31T08:18:41;17.30;99.90
51908;DHT22;39320;53.214;6.556;2023-07-31T08:21:08;17.30;99.90
51908;DHT22;39320;53.214;6.556;2023-07-31T08:23:34;17.30;99.90
51908;DHT22;39320;53.214;6.556;2023-07-31T08:25:59;17.30;99.90
51908;DHT22;39320;53.214;6.556;2023-07-31T08:28:25;17.30;99.90
51908;DHT22;39320;53.214;6.556;2023-07-31T08:30:51;17.30;99.90
51908;DHT22;39320;53.214;6.556;2023-07-31T08:33:17;17.30;99.90
51908;DHT22;39320;53.214;6.556;2023-07-31T08:35:42;17.30;99.90
51908;DHT22;39320;53.214;6.556;2023-07-31T08:38:08;17.40;99.90
51908;DHT22;39320;53.214;6.556;2023-07-31T08:40:36;17.40;99.90
51908;DHT22;39320;53.214;6.556;2023-07-31T08:43:03;17.40;99.90
51908;DHT22;39320;53.214;6.556;2023-07-31T08:45:30;17.40;99.90
51908;DHT22;39320;53.214;6.556;2023-07-31T08:47:56;17.40;99.90
51908;DHT22;39320;53.214;6.556;2023-07-31T08:50:23;17.50;99.90
51908;DHT22;39320;53.214;6.556;2023-07-31T08:52:50;17.50;99.90
51908;DHT22;39320;53.214;6.556;2023-07-31T08:55:17;17.50;99.90
51908;DHT22;39320;53.214;6.556;2023-07-31T08:57:43;17.50;99.90
51908;DHT22;39320;53.214;6.556;2023-07-31T09:00:10;17.50;99.90
51908;DHT22;39320;53.214;6.556;2023-07-31T09:02:48;17.50;99.90
51908;DHT22;39320;53.214;6.556;2023-07-31T09:05:17;17.50;99.90
51908;DHT22;39320;53.214;6.556;2023-07-31T09:07:49;17.60;99.90
51908;DHT22;39320;53.214;6.556;2023-07-31T09:10:15;17.60;99.90
51908;DHT22;39320;53.214;6.556;2023-07-31T09:12:41;17.50;99.90
51908;DHT22;39320;53.214;6.556;2023-07-31T09:15:08;17.60;99.90
51908;DHT22;39320;53.214;6.556;2023-07-31T09:17:36;17.60;99.90
51908;DHT22;39320;53.214;6.556;2023-07-31T09:22:42;17.60;99.90
51908;DHT22;39320;53.214;6.556;2023-07-31T09:25:18;17.60;99.90
51908;DHT22;39320;53.214;6.556;2023-07-31T09:28:00;17.70;99.90
51908;DHT22;39320;53.214;6.556;2023-07-31T09:30:26;17.60;99.90
51908;DHT22;39320;53.214;6.556;2023-07-31T09:33:02;17.60;99.90
51908;DHT22;39320;53.214;6.556;2023-07-31T09:35:33;17.60;99.90
51908;DHT22;39320;53.214;6.556;2023-07-31T09:38:04;17.70;99.90
51908;DHT22;39320;53.214;6.556;2023-07-31T09:40:33;17.60;99.90
51908;DHT22;39320;53.214;6.556;2023-07-31T09:43:01;17.60;99.90
51908;DHT22;39320;53.214;6.556;2023-07-31T09:45:27;17.70;99.90
51908;DHT22;39320;53.214;6.556;2023-07-31T09:47:54;17.60;99.90
51908;DHT22;39320;53.214;6.556;2023-07-31T09:50:24;17.60;99.90
51908;DHT22;39320;53.214;6.556;2023-07-31T09:52:51;17.70;99.90
51908;DHT22;39320;53.214;6.556;2023-07-31T09:55:18;17.70;99.90
51908;DHT22;39320;53.214;6.556;2023-07-31T09:57:48;17.70;99.90
51908;DHT22;39320;53.214;6.556;2023-07-31T10:00:17;17.70;99.90
51908;DHT22;39320;53.214;6.556;2023-07-31T10:02:45;17.80;99.90
51908;DHT22;39320;53.214;6.556;2023-07-31T10:05:14;17.80;99.90
51908;DHT22;39320;53.214;6.556;2023-07-31T10:07:54;17.80;99.90
51908;DHT22;39320;53.214;6.556;2023-07-31T10:10:21;17.80;99.90
51908;DHT22;39320;53.214;6.556;2023-07-31T10:12:48;17.90;99.90
51908;DHT22;39320;53.214;6.556;2023-07-31T10:15:15;17.90;99.90
51908;DHT22;39320;53.214;6.556;2023-07-31T10:17:42;17.90;99.90
51908;DHT22;39320;53.214;6.556;2023-07-31T10:20:08;17.90;99.90
51908;DHT22;39320;53.214;6.556;2023-07-31T10:22:35;17.90;99.90
51908;DHT22;39320;53.214;6.556;2023-07-31T10:25:01;18.00;99.90
51908;DHT22;39320;53.214;6.556;2023-07-31T10:27:27;18.00;99.90
51908;DHT22;39320;53.214;6.556;2023-07-31T10:29:54;18.00;99.90
51908;DHT22;39320;53.214;6.556;2023-07-31T10:32:21;18.00;99.90
51908;DHT22;39320;53.214;6.556;2023-07-31T10:34:47;18.00;99.90
51908;DHT22;39320;53.214;6.556;2023-07-31T10:37:36;18.00;99.90
51908;DHT22;39320;53.214;6.556;2023-07-31T10:40:19;18.00;99.90
51908;DHT22;39320;53.214;6.556;2023-07-31T10:42:50;18.10;99.90
51908;DHT22;39320;53.214;6.556;2023-07-31T10:45:30;18.10;99.90
51908;DHT22;39320;53.214;6.556;2023-07-31T10:48:01;18.10;99.90
51908;DHT22;39320;53.214;6.556;2023-07-31T10:50:28;18.10;99.90
51908;DHT22;39320;53.214;6.556;2023-07-31T10:52:55;18.10;99.90
51908;DHT22;39320;53.214;6.556;2023-07-31T10:55:29;18.10;99.90
51908;DHT22;39320;53.214;6.556;2023-07-31T10:57:57;18.10;99.90
51908;DHT22;39320;53.214;6.556;2023-07-31T11:00:29;18.10;99.90
51908;DHT22;39320;53.214;6.556;2023-07-31T11:08:27;18.10;99.90
51908;DHT22;39320;53.214;6.556;2023-07-31T11:15:54;18.20;99.90
51908;DHT22;39320;53.214;6.556;2023-07-31T11:18:20;18.30;99.90
51908;DHT22;39320;53.214;6.556;2023-07-31T11:20:46;18.30;99.90
51908;DHT22;39320;53.214;6.556;2023-07-31T11:23:11;18.40;99.90
51908;DHT22;39320;53.214;6.556;2023-07-31T11:25:40;18.40;99.90
51908;DHT22;39320;53.214;6.556;2023-07-31T11:28:09;18.40;99.90
51908;DHT22;39320;53.214;6.556;2023-07-31T11:30:36;18.50;99.90
51908;DHT22;39320;53.214;6.556;2023-07-31T11:33:03;18.40;99.90
51908;DHT22;39320;53.214;6.556;2023-07-31T11:35:33;18.50;99.90
51908;DHT22;39320;53.214;6.556;2023-07-31T11:38:00;18.40;99.90
51908;DHT22;39320;53.214;6.556;2023-07-31T11:40:26;18.40;99.90
51908;DHT22;39320;53.214;6.556;2023-07-31T11:42:58;18.40;99.90
51908;DHT22;39320;53.214;6.556;2023-07-31T11:45:27;18.40;99.90
51908;DHT22;39320;53.214;6.556;2023-07-31T11:47:57;18.30;99.90
51908;DHT22;39320;53.214;6.556;2023-07-31T11:50:23;18.30;99.90
51908;DHT22;39320;53.214;6.556;2023-07-31T11:52:54;18.30;99.90
51908;DHT22;39320;53.214;6.556;2023-07-31T11:55:23;18.30;99.90
51908;DHT22;39320;53.214;6.556;2023-07-31T11:57:49;18.20;99.90
51908;DHT22;39320;53.214;6.556;2023-07-31T12:00:16;18.30;99.90
51908;DHT22;39320;53.214;6.556;2023-07-31T12:02:43;18.30;99.90
51908;DHT22;39320;53.214;6.556;2023-07-31T12:05:13;18.40;99.90
51908;DHT22;39320;53.214;6.556;2023-07-31T12:07:49;18.30;99.90
51908;DHT22;39320;53.214;6.556;2023-07-31T12:10:30;18.40;99.90
51908;DHT22;39320;53.214;6.556;2023-07-31T12:13:10;18.40;99.90
51908;DHT22;39320;53.214;6.556;2023-07-31T12:15:43;18.40;99.90
51908;DHT22;39320;53.214;6.556;2023-07-31T12:18:15;18.50;99.90
51908;DHT22;39320;53.214;6.556;2023-07-31T12:20:55;18.50;99.90
51908;DHT22;39320;53.214;6.556;2023-07-31T12:23:30;18.60;99.90
51908;DHT22;39320;53.214;6.556;2023-07-31T12:26:13;18.60;99.90
51908;DHT22;39320;53.214;6.556;2023-07-31T12:28:49;18.60;99.90
51908;DHT22;39320;53.214;6.556;2023-07-31T12:31:20;18.60;99.90
51908;DHT22;39320;53.214;6.556;2023-07-31T12:33:48;18.60;99.90
51908;DHT22;39320;53.214;6.556;2023-07-31T12:36:23;18.60;99.90
51908;DHT22;39320;53.214;6.556;2023-07-31T12:38:50;18.60;99.90
51908;DHT22;39320;53.214;6.556;2023-07-31T12:41:16;18.60;99.90
51908;DHT22;39320;53.214;6.556;2023-07-31T12:43:43;18.70;99.90
51908;DHT22;39320;53.214;6.556;2023-07-31T12:46:09;18.70;99.90
51908;DHT22;39320;53.214;6.556;2023-07-31T12:48:36;18.70;99.90
51908;DHT22;39320;53.214;6.556;2023-07-31T12:51:02;18.70;99.90
51908;DHT22;39320;53.214;6.556;2023-07-31T12:53:28;18.70;99.90
51908;DHT22;39320;53.214;6.556;2023-07-31T12:55:55;18.80;99.90
51908;DHT22;39320;53.214;6.556;2023-07-31T12:58:21;18.80;99.90
51908;DHT22;39320;53.214;6.556;2023-07-31T13:00:47;18.80;99.90
51908;DHT22;39320;53.214;6.556;2023-07-31T13:03:12;18.80;99.90
51908;DHT22;39320;53.214;6.556;2023-07-31T13:05:38;18.90;99.90
51908;DHT22;39320;53.214;6.556;2023-07-31T13:08:04;18.90;99.90
51908;DHT22;39320;53.214;6.556;2023-07-31T13:10:30;18.90;99.90
51908;DHT22;39320;53.214;6.556;2023-07-31T13:12:56;18.90;99.90
51908;DHT22;39320;53.214;6.556;2023-07-31T13:15:22;18.90;99.90
51908;DHT22;39320;53.214;6.556;2023-07-31T13:17:48;19.00;99.90
51908;DHT22;39320;53.214;6.556;2023-07-31T13:20:13;19.00;99.90
51908;DHT22;39320;53.214;6.556;2023-07-31T13:22:39;19.00;99.90
51908;DHT22;39320;53.214;6.556;2023-07-31T13:25:06;19.00;99.90
51908;DHT22;39320;53.214;6.556;2023-07-31T13:27:32;19.10;99.90
51908;DHT22;39320;53.214;6.556;2023-07-31T13:29:58;19.10;99.90
51908;DHT22;39320;53.214;6.556;2023-07-31T13:32:23;19.10;99.90
51908;DHT22;39320;53.214;6.556;2023-07-31T13:34:49;19.10;99.90
51908;DHT22;39320;53.214;6.556;2023-07-31T13:37:15;19.10;99.90
51908;DHT22;39320;53.214;6.556;2023-07-31T13:39:42;19.10;99.90
51908;DHT22;39320;53.214;6.556;2023-07-31T13:42:09;19.10;99.90
51908;DHT22;39320;53.214;6.556;2023-07-31T13:44:41;19.10;99.90
51908;DHT22;39320;53.214;6.556;2023-07-31T13:47:08;19.20;99.90
51908;DHT22;39320;53.214;6.556;2023-07-31T13:49:34;19.20;99.90
51908;DHT22;39320;53.214;6.556;2023-07-31T13:52:01;19.20;99.90
51908;DHT22;39320;53.214;6.556;2023-07-31T13:54:30;19.20;99.90
51908;DHT22;39320;53.214;6.556;2023-07-31T13:56:56;19.30;99.90
51908;DHT22;39320;53.214;6.556;2023-07-31T13:59:21;19.30;99.90
51908;DHT22;39320;53.214;6.556;2023-07-31T14:01:47;19.30;99.90
51908;DHT22;39320;53.214;6.556;2023-07-31T14:04:14;19.40;99.90
51908;DHT22;39320;53.214;6.556;2023-07-31T14:06:39;19.40;99.90
51908;DHT22;39320;53.214;6.556;2023-07-31T14:09:05;19.50;99.90
51908;DHT22;39320;53.214;6.556;2023-07-31T14:11:32;19.60;99.90
51908;DHT22;39320;53.214;6.556;2023-07-31T14:13:57;19.50;99.90
51908;DHT22;39320;53.214;6.556;2023-07-31T14:16:26;19.50;99.90
51908;DHT22;39320;53.214;6.556;2023-07-31T14:18:52;19.50;99.90
51908;DHT22;39320;53.214;6.556;2023-07-31T14:21:19;19.50;99.90
51908;DHT22;39320;53.214;6.556;2023-07-31T14:23:45;19.50;99.90
51908;DHT22;39320;53.214;6.556;2023-07-31T14:26:10;19.50;99.90
51908;DHT22;39320;53.214;6.556;2023-07-31T14:28:36;19.40;99.90
51908;DHT22;39320;53.214;6.556;2023-07-31T14:31:02;19.40;99.90
51908;DHT22;39320;53.214;6.556;2023-07-31T14:33:28;19.40;99.90
51908;DHT22;39320;53.214;6.556;2023-07-31T14:35:54;19.40;99.90
51908;DHT22;39320;53.214;6.556;2023-07-31T14:38:20;19.40;99.90
51908;DHT22;39320;53.214;6.556;2023-07-31T14:40:46;19.40;99.90
51908;DHT22;39320;53.214;6.556;2023-07-31T14:43:11;19.40;99.90
51908;DHT22;39320;53.214;6.556;2023-07-31T14:45:37;19.40;99.90
51908;DHT22;39320;53.214;6.556;2023-07-31T14:48:03;19.40;99.90
51908;DHT22;39320;53.214;6.556;2023-07-31T14:50:29;19.40;99.90
51908;DHT22;39320;53.214;6.556;2023-07-31T14:52:55;19.40;99.90
51908;DHT22;39320;53.214;6.556;2023-07-31T14:55:21;19.40;99.90
51908;DHT22;39320;53.214;6.556;2023-07-31T14:57:47;19.40;99.90
51908;DHT22;39320;53.214;6.556;2023-07-31T15:00:13;19.40;99.90
51908;DHT22;39320;53.214;6.556;2023-07-31T15:02:39;19.40;99.90
51908;DHT22;39320;53.214;6.556;2023-07-31T15:05:06;19.40;99.90
51908;DHT22;39320;53.214;6.556;2023-07-31T15:07:32;19.40;99.90
51908;DHT22;39320;53.214;6.556;2023-07-31T15:09:58;19.40;99.90
51908;DHT22;39320;53.214;6.556;2023-07-31T15:12:24;19.40;99.90
51908;DHT22;39320;53.214;6.556;2023-07-31T15:14:51;19.40;99.90
51908;DHT22;39320;53.214;6.556;2023-07-31T15:17:17;19.40;99.90
51908;DHT22;39320;53.214;6.556;2023-07-31T15:19:43;19.40;99.90
51908;DHT22;39320;53.214;6.556;2023-07-31T15:22:09;19.40;99.90
51908;DHT22;39320;53.214;6.556;2023-07-31T15:24:35;19.30;99.90
51908;DHT22;39320;53.214;6.556;2023-07-31T15:27:01;19.30;99.90
51908;DHT22;39320;53.214;6.556;2023-07-31T15:29:29;19.30;99.90
51908;DHT22;39320;53.214;6.556;2023-07-31T15:31:55;19.30;99.90
51908;DHT22;39320;53.214;6.556;2023-07-31T15:34:21;19.30;99.90
51908;DHT22;39320;53.214;6.556;2023-07-31T15:36:47;19.30;99.90
51908;DHT22;39320;53.214;6.556;2023-07-31T15:39:13;19.20;99.90
51908;DHT22;39320;53.214;6.556;2023-07-31T15:41:40;19.30;99.90
51908;DHT22;39320;53.214;6.556;2023-07-31T15:44:07;19.30;99.90
51908;DHT22;39320;53.214;6.556;2023-07-31T15:46:33;19.30;99.90
51908;DHT22;39320;53.214;6.556;2023-07-31T15:48:59;19.30;99.90